createdAt,value
2022-07-30T00:02:47.413Z,97792.06
2022-07-30T00:05:29.701Z,97801.75
2022-07-30T00:08:18.703Z,97797.59
2022-07-30T00:11:00.723Z,97793.75
2022-07-30T00:13:49.711Z,97802.31
2022-07-30T00:16:31.779Z,97803.47
2022-07-30T00:19:20.412Z,97809.47
2022-07-30T00:22:04.153Z,97813.81
2022-07-30T00:24:52.414Z,97818.88
2022-07-30T00:27:47.254Z,97821.72
2022-07-30T00:30:35.491Z,97829.34
2022-07-30T00:33:17.684Z,97835.16
2022-07-30T00:36:06.651Z,97839.19
2022-07-30T00:38:48.707Z,97839.53
2022-07-30T00:41:37.378Z,97831.94
2022-07-30T00:44:19.707Z,97831.16
2022-07-30T00:47:08.404Z,97831.81
2022-07-30T00:49:50.601Z,97838.56
2022-07-30T00:52:42.439Z,97837.28
2022-07-30T00:55:24.926Z,97827.72
2022-07-30T00:58:13.466Z,97837.84
2022-07-30T01:00:56.787Z,97838.41
2022-07-30T01:03:46.689Z,97840.28
2022-07-30T01:06:28.922Z,97854.25
2022-07-30T01:09:17.414Z,97852.28
2022-07-30T01:12:06.402Z,97856.50
2022-07-30T01:14:50.446Z,97858.47
2022-07-30T01:17:40.641Z,97866.41
2022-07-30T01:20:29.893Z,97864.97
2022-07-30T01:23:43.255Z,97855.06
2022-07-30T01:26:39.232Z,97842.94
2022-07-30T01:29:28.383Z,97846.25
2022-07-30T01:32:13.547Z,97855.66
2022-07-30T01:35:05.382Z,97857.06
2022-07-30T01:37:49.915Z,97856.63
2022-07-30T01:40:40.397Z,97868.59
2022-07-30T01:43:23.787Z,97875.09
2022-07-30T01:46:13.608Z,97871.38
2022-07-30T01:48:58.763Z,97874.25
2022-07-30T01:51:42.423Z,97871.81
2022-07-30T01:54:27.870Z,97875.59
2022-07-30T01:57:17.657Z,97881.88
2022-07-30T02:00:13.633Z,97880.13
2022-07-30T02:02:58.415Z,97881.06
2022-07-30T02:05:50.676Z,97875.91
2022-07-30T02:08:58.428Z,97881.69
2022-07-30T02:12:09.366Z,97882.06
2022-07-30T02:15:07.433Z,97879.84
2022-07-30T02:18:00.068Z,97877.31
2022-07-30T02:20:50.433Z,97884.34
2022-07-30T02:23:48.925Z,97887.84
2022-07-30T02:26:38.630Z,97876.84
2022-07-30T02:29:24.013Z,97876.44
2022-07-30T02:32:17.412Z,97877.00
2022-07-30T02:35:06.697Z,97877.44
2022-07-30T02:38:00.379Z,97872.88
2022-07-30T02:40:43.579Z,97876.22
2022-07-30T02:43:36.253Z,97879.94
2022-07-30T02:46:27.663Z,97881.78
2022-07-30T02:49:41.197Z,97881.38
2022-07-30T02:52:31.278Z,97877.69
2022-07-30T02:55:21.640Z,97873.63
2022-07-30T02:58:12.471Z,97875.16
2022-07-30T03:00:57.172Z,97872.47
2022-07-30T03:03:46.643Z,97867.50
2022-07-30T03:06:28.934Z,97866.59
2022-07-30T03:09:19.765Z,97867.53
2022-07-30T03:12:04.332Z,97867.56
2022-07-30T03:14:54.420Z,97872.16
2022-07-30T03:17:41.623Z,97876.50
2022-07-30T03:20:35.412Z,97878.66
2022-07-30T03:23:28.711Z,97879.81
2022-07-30T03:26:13.399Z,97875.63
2022-07-30T03:29:02.903Z,97872.97
2022-07-30T03:31:48.458Z,97878.22
2022-07-30T03:34:39.456Z,97887.34
2022-07-30T03:37:22.895Z,97876.06
2022-07-30T03:40:12.398Z,97892.69
2022-07-30T03:42:56.274Z,97884.97
2022-07-30T03:45:50.634Z,97888.69
2022-07-30T03:48:36.214Z,97881.22
2022-07-30T03:51:25.369Z,97888.09
2022-07-30T03:54:14.883Z,97887.22
2022-07-30T03:57:20.823Z,97887.75
2022-07-30T04:00:03.248Z,97896.06
2022-07-30T04:02:55.381Z,97891.63
2022-07-30T04:05:57.612Z,97899.63
2022-07-30T04:08:46.645Z,97892.56
2022-07-30T04:11:41.272Z,97890.19
2022-07-30T04:14:32.380Z,97893.72
2022-07-30T04:17:30.740Z,97889.78
2022-07-30T04:20:24.643Z,97889.81
2022-07-30T04:23:06.802Z,97897.91
2022-07-30T04:25:59.404Z,97894.72
2022-07-30T04:28:54.288Z,97890.03
2022-07-30T04:31:44.929Z,97888.75
2022-07-30T04:34:42.630Z,97891.94
2022-07-30T04:37:29.970Z,97898.53
2022-07-30T04:40:20.398Z,97897.97
2022-07-30T04:43:17.926Z,97899.72
2022-07-30T04:45:59.440Z,97900.69
2022-07-30T04:48:42.845Z,97899.00
2022-07-30T04:51:42.406Z,97901.25
2022-07-30T04:54:26.983Z,97910.44
2022-07-30T04:57:15.556Z,97906.09
2022-07-30T04:59:57.772Z,97912.00
2022-07-30T05:02:49.652Z,97911.03
2022-07-30T05:05:45.625Z,97918.00
2022-07-30T05:08:28.013Z,97922.28
2022-07-30T05:11:20.659Z,97920.09
2022-07-30T05:14:09.364Z,97912.84
2022-07-30T05:16:51.970Z,97913.88
2022-07-30T05:19:40.453Z,97920.03
2022-07-30T05:22:22.939Z,97920.53
2022-07-30T05:25:15.784Z,97917.31
2022-07-30T05:28:14.485Z,97907.75
2022-07-30T05:31:08.104Z,97926.03
2022-07-30T05:33:58.274Z,97913.44
2022-07-30T05:36:58.781Z,97913.16
2022-07-30T05:39:58.789Z,97913.00
2022-07-30T05:43:00.388Z,97911.94
2022-07-30T05:45:49.811Z,97908.91
2022-07-30T05:48:33.264Z,97905.75
2022-07-30T05:51:22.645Z,97912.53
2022-07-30T05:54:11.443Z,97910.50
2022-07-30T05:57:26.648Z,97906.56
2022-07-30T06:00:15.055Z,97907.75
2022-07-30T06:03:08.659Z,97906.06
2022-07-30T06:06:16.740Z,97909.25
2022-07-30T06:09:07.395Z,97910.09
2022-07-30T06:11:49.912Z,97922.03
2022-07-30T06:14:40.379Z,97923.13
2022-07-30T06:17:29.818Z,97923.81
2022-07-30T06:20:29.405Z,97927.31
2022-07-30T06:23:39.445Z,97929.31
2022-07-30T06:26:37.381Z,97928.75
2022-07-30T06:29:33.493Z,97921.44
2022-07-30T06:32:26.372Z,97927.72
2022-07-30T06:35:11.385Z,97922.59
2022-07-30T06:38:06.780Z,97920.91
2022-07-30T06:41:02.831Z,97909.22
2022-07-30T06:44:12.437Z,97908.22
2022-07-30T06:47:13.095Z,97898.63
2022-07-30T06:50:03.637Z,97902.84
2022-07-30T06:52:45.694Z,97895.59
2022-07-30T06:55:35.663Z,97891.16
2022-07-30T06:58:17.653Z,97892.78
2022-07-30T07:01:34.696Z,97885.03
2022-07-30T07:04:16.767Z,97875.06
2022-07-30T07:07:12.727Z,97874.34
2022-07-30T07:09:56.091Z,97858.19
2022-07-30T07:13:03.418Z,97848.56
2022-07-30T07:15:46.135Z,97844.97
2022-07-30T07:18:37.373Z,97834.69
2022-07-30T07:21:19.938Z,97839.78
2022-07-30T07:24:10.432Z,97839.94
2022-07-30T07:27:05.035Z,97831.97
2022-07-30T07:30:08.430Z,97819.94
2022-07-30T07:32:51.530Z,97812.75
2022-07-30T07:35:49.727Z,97809.72
2022-07-30T07:38:35.814Z,97806.50
2022-07-30T07:41:24.406Z,97803.16
2022-07-30T07:44:06.797Z,97797.78
2022-07-30T07:46:55.670Z,97799.00
2022-07-30T07:49:42.712Z,97792.22
2022-07-30T07:52:31.398Z,97785.06
2022-07-30T07:55:14.683Z,97783.44
2022-07-30T07:58:05.697Z,97783.44
2022-07-30T08:00:49.011Z,97781.88
2022-07-30T08:03:45.394Z,97782.28
2022-07-30T08:06:48.148Z,97773.94
2022-07-30T08:09:54.380Z,97768.75
2022-07-30T08:12:36.939Z,97756.78
2022-07-30T08:16:00.624Z,97745.25
2022-07-30T08:19:09.651Z,97742.44
2022-07-30T08:22:00.308Z,97734.06
2022-07-30T08:24:49.375Z,97730.13
2022-07-30T08:27:38.667Z,97715.75
2022-07-30T08:30:28.732Z,97726.53
2022-07-30T08:33:10.900Z,97713.41
2022-07-30T08:36:09.155Z,97714.97
2022-07-30T08:38:59.635Z,97714.56
2022-07-30T08:41:49.942Z,97714.56
2022-07-30T08:44:32.616Z,97720.53
2022-07-30T08:47:25.972Z,97714.13
2022-07-30T08:50:17.647Z,97705.38
2022-07-30T08:53:26.410Z,97687.50
2022-07-30T08:56:09.980Z,97681.56
2022-07-30T08:59:00.406Z,97676.78
2022-07-30T09:01:43.090Z,97675.16
2022-07-30T09:04:31.399Z,97672.38
2022-07-30T09:07:21.653Z,97670.31
2022-07-30T09:10:11.010Z,97663.94
2022-07-30T09:12:54.625Z,97659.22
2022-07-30T09:15:47.080Z,97660.44
2022-07-30T09:18:51.693Z,97648.81
2022-07-30T09:21:39.867Z,97643.22
2022-07-30T09:24:51.396Z,97650.38
2022-07-30T09:28:00.077Z,97648.75
2022-07-30T09:31:17.499Z,97628.44
2022-07-30T09:34:54.425Z,97620.88
2022-07-30T09:38:07.660Z,97605.84
2022-07-30T09:41:37.781Z,97602.91
2022-07-30T09:44:37.648Z,97602.56
2022-07-30T09:47:39.850Z,97592.59
2022-07-30T09:50:30.686Z,97587.41
2022-07-30T09:53:24.378Z,97587.78
2022-07-30T09:56:26.681Z,97573.88
2022-07-30T09:59:20.640Z,97575.72
2022-07-30T10:02:05.192Z,97561.78
2022-07-30T10:05:29.625Z,97552.25
2022-07-30T10:08:16.756Z,97548.88
2022-07-30T10:11:09.575Z,97550.47
2022-07-30T10:14:00.493Z,97544.06
2022-07-30T10:16:49.624Z,97545.22
2022-07-30T10:19:39.791Z,97543.75
2022-07-30T10:22:33.383Z,97544.56
2022-07-30T10:25:48.998Z,97540.31
2022-07-30T10:28:52.675Z,97552.63
2022-07-30T10:31:48.333Z,97548.09
2022-07-30T10:34:34.426Z,97546.50
2022-07-30T10:37:27.390Z,97543.66
2022-07-30T10:40:23.025Z,97539.69
2022-07-30T10:43:50.640Z,97540.50
2022-07-30T10:46:57.934Z,97524.66
2022-07-30T10:49:48.676Z,97521.56
2022-07-30T10:53:04.615Z,97517.47
2022-07-30T10:55:53.816Z,97503.25
2022-07-30T10:58:35.274Z,97507.50
2022-07-30T11:01:24.401Z,97501.47
2022-07-30T11:04:32.521Z,97500.72
2022-07-30T11:07:30.496Z,97492.56
2022-07-30T11:10:12.554Z,97496.09
2022-07-30T11:13:03.654Z,97499.22
2022-07-30T11:16:07.605Z,97496.78
2022-07-30T11:19:55.907Z,97494.44
2022-07-30T11:22:45.674Z,97494.84
2022-07-30T11:25:51.705Z,97491.31
2022-07-30T11:28:50.131Z,97496.41
2022-07-30T11:32:07.496Z,97500.00
2022-07-30T11:35:02.391Z,97494.56
2022-07-30T11:38:19.647Z,97483.69
2022-07-30T11:41:04.915Z,97484.97
2022-07-30T11:43:53.378Z,97489.34
2022-07-30T11:46:35.830Z,97492.06
2022-07-30T11:49:26.424Z,97487.31
2022-07-30T11:52:08.858Z,97480.94
2022-07-30T11:55:07.393Z,97489.78
2022-07-30T11:57:57.614Z,97477.06
2022-07-30T12:00:49.014Z,97465.44
2022-07-30T12:03:40.325Z,97465.44
2022-07-30T12:06:24.448Z,97468.25
2022-07-30T12:09:14.613Z,97478.63
2022-07-30T12:11:57.727Z,97484.25
2022-07-30T12:14:52.634Z,97476.28
2022-07-30T12:18:11.019Z,97460.44
2022-07-30T12:21:17.965Z,97462.34
2022-07-30T12:24:11.363Z,97461.19
2022-07-30T12:26:55.022Z,97451.63
2022-07-30T12:29:46.653Z,97443.66
2022-07-30T12:32:35.211Z,97442.53
2022-07-30T12:35:29.364Z,97449.28
2022-07-30T12:38:12.198Z,97449.66
2022-07-30T12:41:11.393Z,97458.84
2022-07-30T12:43:57.613Z,97462.78
2022-07-30T12:46:53.322Z,97465.16
2022-07-30T12:49:37.614Z,97472.34
2022-07-30T12:52:46.378Z,97477.50
2022-07-30T12:55:34.521Z,97488.63
2022-07-30T12:58:23.652Z,97488.19
2022-07-30T13:01:12.730Z,97492.47
2022-07-30T13:03:55.420Z,97494.50
2022-07-30T13:06:45.006Z,97505.44
2022-07-30T13:09:29.608Z,97502.69
2022-07-30T13:12:16.126Z,97502.78
2022-07-30T13:15:04.369Z,97498.25
2022-07-30T13:17:53.422Z,97497.03
2022-07-30T13:20:35.661Z,97507.81
2022-07-30T13:23:24.403Z,97506.13
2022-07-30T13:26:06.795Z,97502.03
2022-07-30T13:28:57.623Z,97510.13
2022-07-30T13:31:43.801Z,97511.72
2022-07-30T13:34:38.367Z,97510.16
2022-07-30T13:37:20.843Z,97506.16
2022-07-30T13:40:13.397Z,97503.63
2022-07-30T13:43:03.731Z,97511.72
2022-07-30T13:45:46.384Z,97509.31
2022-07-30T13:48:34.979Z,97508.13
2022-07-30T13:51:16.633Z,97512.59
2022-07-30T13:54:06.021Z,97503.06
2022-07-30T13:56:48.364Z,97512.91
2022-07-30T13:59:36.797Z,97499.59
2022-07-30T14:02:19.351Z,97510.13
2022-07-30T14:05:09.090Z,97506.47
2022-07-30T14:07:50.498Z,97499.78
2022-07-30T14:10:40.613Z,97502.19
2022-07-30T14:13:23.335Z,97512.53
2022-07-30T14:16:35.395Z,97523.63
2022-07-30T14:19:23.166Z,97516.78
2022-07-30T14:22:13.636Z,97522.34
2022-07-30T14:24:56.104Z,97520.31
2022-07-30T14:27:45.604Z,97519.53
2022-07-30T14:30:31.538Z,97515.53
2022-07-30T14:33:20.613Z,97532.19
2022-07-30T14:36:15.470Z,97534.66
2022-07-30T14:39:12.604Z,97524.72
2022-07-30T14:42:00.784Z,97532.66
2022-07-30T14:44:43.620Z,97532.78
2022-07-30T14:47:32.031Z,97536.16
2022-07-30T14:50:19.694Z,97555.16
2022-07-30T14:53:08.611Z,97554.16
2022-07-30T14:55:51.017Z,97557.84
2022-07-30T14:58:39.359Z,97558.78
2022-07-30T15:01:28.655Z,97545.56
2022-07-30T15:04:17.872Z,97547.09
2022-07-30T15:07:00.377Z,97545.81
2022-07-30T15:09:48.692Z,97555.78
2022-07-30T15:12:31.458Z,97556.03
2022-07-30T15:15:21.038Z,97559.19
2022-07-30T15:18:05.635Z,97573.72
2022-07-30T15:20:47.953Z,97566.31
2022-07-30T15:23:36.614Z,97576.50
2022-07-30T15:26:18.642Z,97574.81
2022-07-30T15:29:11.624Z,97579.28
2022-07-30T15:31:55.476Z,97580.16
2022-07-30T15:34:44.361Z,97588.91
2022-07-30T15:37:40.344Z,97589.97
2022-07-30T15:40:31.461Z,97585.28
2022-07-30T15:43:14.034Z,97589.03
2022-07-30T15:46:02.384Z,97583.25
2022-07-30T15:48:51.644Z,97597.69
2022-07-30T15:51:48.524Z,97603.22
2022-07-30T15:54:31.413Z,97613.38
2022-07-30T15:57:13.685Z,97613.34
2022-07-30T16:00:02.388Z,97608.50
2022-07-30T16:02:47.939Z,97604.25
2022-07-30T16:05:52.058Z,97607.00
2022-07-30T16:08:40.696Z,97593.66
2022-07-30T16:11:22.374Z,97607.16
2022-07-30T16:14:04.452Z,97610.38
2022-07-30T16:16:53.611Z,97623.06
2022-07-30T16:19:35.755Z,97609.63
2022-07-30T16:22:24.632Z,97605.69
2022-07-30T16:25:07.370Z,97604.47
2022-07-30T16:27:56.376Z,97607.19
2022-07-30T16:30:50.915Z,97605.56
2022-07-30T16:33:33.847Z,97603.69
2022-07-30T16:36:22.367Z,97601.34
2022-07-30T16:39:11.606Z,97608.09
2022-07-30T16:41:53.910Z,97611.25
2022-07-30T16:44:43.590Z,97613.63
2022-07-30T16:47:25.507Z,97615.59
2022-07-30T16:50:14.364Z,97614.38
2022-07-30T16:53:08.543Z,97620.31
2022-07-30T16:55:54.604Z,97617.63
2022-07-30T16:58:43.592Z,97622.28
2022-07-30T17:01:25.884Z,97629.50
2022-07-30T17:04:15.650Z,97635.84
2022-07-30T17:07:05.365Z,97631.78
2022-07-30T17:09:52.466Z,97626.19
2022-07-30T17:12:41.405Z,97624.84
2022-07-30T17:15:39.609Z,97627.53
2022-07-30T17:18:22.855Z,97628.78
2022-07-30T17:21:11.392Z,97635.94
2022-07-30T17:24:00.610Z,97644.81
2022-07-30T17:26:50.643Z,97639.31
2022-07-30T17:29:32.617Z,97622.66
2022-07-30T17:32:15.892Z,97626.50
2022-07-30T17:35:04.393Z,97619.31
2022-07-30T17:37:47.020Z,97616.81
2022-07-30T17:40:35.598Z,97620.97
2022-07-30T17:43:24.425Z,97608.31
2022-07-30T17:46:07.349Z,97617.53
2022-07-30T17:48:56.461Z,97618.66
2022-07-30T17:51:38.772Z,97613.69
2022-07-30T17:54:27.381Z,97609.00
2022-07-30T17:57:16.587Z,97596.78
2022-07-30T18:00:22.357Z,97597.97
2022-07-30T18:03:12.045Z,97608.38
2022-07-30T18:05:53.617Z,97610.41
2022-07-30T18:08:42.714Z,97616.34
2022-07-30T18:11:25.373Z,97615.41
2022-07-30T18:14:13.566Z,97614.44
2022-07-30T18:16:55.352Z,97614.53
2022-07-30T18:19:37.952Z,97609.22
2022-07-30T18:22:31.784Z,97608.03
2022-07-30T18:25:18.002Z,97601.44
2022-07-30T18:28:08.358Z,97594.88
2022-07-30T18:30:50.839Z,97600.69
2022-07-30T18:33:39.619Z,97592.59
2022-07-30T18:36:28.612Z,97586.72
2022-07-30T18:39:11.811Z,97583.81
2022-07-30T18:42:00.846Z,97581.78
2022-07-30T18:44:49.616Z,97581.78
2022-07-30T18:47:31.936Z,97582.72
2022-07-30T18:50:14.653Z,97573.75
2022-07-30T18:52:57.313Z,97576.13
2022-07-30T18:55:46.595Z,97574.84
2022-07-30T18:58:29.039Z,97580.44
2022-07-30T19:01:17.577Z,97579.09
2022-07-30T19:04:00.102Z,97580.31
2022-07-30T19:06:48.600Z,97579.13
2022-07-30T19:09:37.611Z,97578.28
2022-07-30T19:12:26.241Z,97569.03
2022-07-30T19:15:13.966Z,97568.31
2022-07-30T19:18:01.780Z,97572.34
2022-07-30T19:20:44.348Z,97567.19
2022-07-30T19:23:33.383Z,97568.06
2022-07-30T19:26:17.582Z,97569.81
2022-07-30T19:29:06.424Z,97565.47
2022-07-30T19:31:55.609Z,97561.03
2022-07-30T19:34:45.033Z,97563.59
2022-07-30T19:37:26.370Z,97562.84
2022-07-30T19:40:15.658Z,97565.38
2022-07-30T19:42:57.619Z,97575.97
2022-07-30T19:45:47.434Z,97564.81
2022-07-30T19:48:37.588Z,97579.34
2022-07-30T19:52:10.379Z,97577.72
2022-07-30T19:54:28.906Z,97577.28
2022-07-30T19:57:16.595Z,97571.19
2022-07-30T20:00:04.100Z,97574.31
2022-07-30T20:02:56.415Z,97569.38
2022-07-30T20:05:57.623Z,97568.00
2022-07-30T20:08:48.382Z,97569.50
2022-07-30T20:11:37.610Z,97552.09
2022-07-30T20:14:20.662Z,97543.63
2022-07-30T20:17:09.608Z,97542.88
2022-07-30T20:19:53.690Z,97538.88
2022-07-30T20:22:42.358Z,97533.41
2022-07-30T20:25:24.686Z,97522.50
2022-07-30T20:28:13.372Z,97524.81
2022-07-30T20:31:04.373Z,97518.91
2022-07-30T20:33:50.252Z,97513.16
2022-07-30T20:36:40.349Z,97512.06
2022-07-30T20:39:35.430Z,97492.41
2022-07-30T20:42:24.717Z,97485.84
2022-07-30T20:45:13.354Z,97486.94
2022-07-30T20:48:05.888Z,97488.41
2022-07-30T20:53:56.354Z,97476.34
2022-07-30T20:56:43.237Z,97461.44
2022-07-30T20:59:32.581Z,97463.84
2022-07-30T21:02:28.276Z,97456.84
2022-07-30T21:05:11.060Z,97457.13
2022-07-30T21:08:04.603Z,97447.94
2022-07-30T21:10:47.628Z,97429.63
2022-07-30T21:13:36.376Z,97424.81
2022-07-30T21:16:25.365Z,97413.97
2022-07-30T21:19:07.787Z,97417.66
2022-07-30T21:21:57.607Z,97424.22
2022-07-30T21:24:46.378Z,97418.91
2022-07-30T21:27:42.350Z,97426.66
2022-07-30T21:30:31.585Z,97427.47
2022-07-30T21:33:14.627Z,97419.97
2022-07-30T21:36:03.358Z,97411.63
2022-07-30T21:38:46.946Z,97414.91
2022-07-30T21:41:40.048Z,97420.81
2022-07-30T21:44:22.531Z,97420.78
2022-07-30T21:47:12.607Z,97429.88
2022-07-30T21:49:54.854Z,97423.31
2022-07-30T21:52:43.610Z,97425.25
2022-07-30T21:55:33.330Z,97418.16
2022-07-30T21:58:25.734Z,97412.22
2022-07-30T22:01:27.379Z,97419.94
2022-07-30T22:04:09.543Z,97415.28
2022-07-30T22:07:00.526Z,97412.19
2022-07-30T22:09:43.547Z,97415.31
2022-07-30T22:12:32.604Z,97411.19
2022-07-30T22:15:21.354Z,97408.16
2022-07-30T22:18:03.752Z,97406.28
2022-07-30T22:20:52.368Z,97406.16
2022-07-30T22:23:34.650Z,97405.22
2022-07-30T22:26:23.594Z,97403.81
2022-07-30T22:29:08.801Z,97410.09
2022-07-30T22:31:58.620Z,97407.75
2022-07-30T22:34:41.929Z,97408.00
2022-07-30T22:37:34.864Z,97408.50
2022-07-30T22:40:31.394Z,97402.84
2022-07-30T22:43:21.662Z,97394.00
2022-07-30T22:46:03.460Z,97390.97
2022-07-30T22:49:02.922Z,97399.50
2022-07-30T22:51:58.771Z,97397.78
2022-07-30T22:54:45.833Z,97402.25
2022-07-30T22:57:40.224Z,97416.09
2022-07-30T23:00:28.252Z,97414.63
2022-07-30T23:03:17.227Z,97422.09
2022-07-30T23:06:07.401Z,97429.63
2022-07-30T23:08:56.878Z,97433.25
2022-07-30T23:11:46.599Z,97452.06
2022-07-30T23:12:18.627Z,97480.28
2022-07-30T23:14:29.585Z,97442.66
2022-07-30T23:17:18.356Z,97429.00
2022-07-30T23:20:00.716Z,97433.41
2022-07-30T23:22:49.377Z,97439.88
2022-07-30T23:25:38.560Z,97443.59
2022-07-30T23:28:28.574Z,97446.63
2022-07-30T23:31:11.812Z,97441.56
2022-07-30T23:34:00.359Z,97457.09
2022-07-30T23:36:43.690Z,97453.25
2022-07-30T23:39:32.344Z,97444.03
2022-07-30T23:42:20.857Z,97453.06
2022-07-30T23:45:02.247Z,97450.72
2022-07-30T23:48:00.714Z,97456.88
2022-07-30T23:50:44.670Z,97458.41
2022-07-30T23:53:33.362Z,97461.13
2022-07-30T23:56:21.648Z,97458.22
2022-07-30T23:59:10.232Z,97463.88
